Hawarden, United Kingdom

5:06 AM GMT on December 19, 2014 (GMT +0000)
Broughton, Flintshire | Change Station
CLOSE
Current Station
Personal Weather Station
Location: Broughton, WALES
Elevation: 82 ft
Nearby Weather Stations

Elev 82 ft 53.16 °N, 2.99 °W | Updated 7 seconds ago

Partly Cloudy
Partly Cloudy
45.3 °F
Feels Like 45 °F
N
3.0
Wind Variable Wind from NW
Gusts 5.0 mph

Today
High -- | Low -- °F
--% Chance of Precip.
Yesterday
High -- | Low -- °F
Precip. -- in
8:22 AM 3:55 PM
Waning Crescent, 10% visible
Pressure 29.74 in
Visibility 6.2 miles
Clouds Few 3600 ft
Windchill 45 °F
Dew Point 42 °F
Humidity 88%
Rainfall 0.05 in
Snow Depth Not available.
UV 0 out of 12
Pollen Not available.
Air Quality Not available.
Flu Activity Not available.
METAR EGGP 190450Z 27018KT 9999 FEW036 07/03 Q1007

More Conditions Fewer Conditions

Pressure 29.74 in
Visibility 6.2 miles
Clouds Few 3600 ft
Windchill 45 °F
Dew Point 42 °F
Humidity 88%
Rainfall 0.05 in
Snow Depth Not available.
UV 0 out of 12
Pollen Not available.
Air Quality Not available.
Flu Activity Not available.
METAR EGGP 190450Z 27018KT 9999 FEW036 07/03 Q1007

More Conditions Fewer Conditions

10-Day Weather Forecast

Almanac

Astronomy

Dec. 19, 2014 Rise Set
Actual Time
Civil Twilight
Nautical Twilight
Astronomical Twilight
Moon
Length of Visible Light
Length of Day
Tomorrow will be .
, % of the Moon is Illuminated

Today's Extremes

Country Highs Country Lows

Community

WunderPhotos

Upload Photos

1,778,953 photos uploaded!

WunderBlogs® & News

Nearby

Air Quality

  Air Quality AQ Index Pollutant
Not available.

Snow Depth

Station Depth Elevation

Earthquake Activity

City Distance Mag. Time & Date
Minimum magnitude displayed is 2.5.

Coastal Water Temperatures

Place Temperature

Nearby Weather Stations